createdAt,value
2019-03-17T00:00:16.750Z,10.40
2019-03-17T00:02:45.384Z,10.30
2019-03-17T00:05:14.130Z,10.30
2019-03-17T00:07:44.186Z,10.40
2019-03-17T00:10:12.838Z,10.40
2019-03-17T00:12:41.534Z,10.40
2019-03-17T00:15:11.079Z,10.40
2019-03-17T00:17:43.251Z,10.40
2019-03-17T00:20:12.065Z,10.40
2019-03-17T00:22:40.600Z,10.40
2019-03-17T00:25:10.279Z,10.40
2019-03-17T00:27:39.560Z,10.40
2019-03-17T00:30:10.874Z,10.40
2019-03-17T00:32:39.425Z,10.30
2019-03-17T00:35:08.029Z,10.40
2019-03-17T00:37:36.607Z,10.40
2019-03-17T00:40:08.507Z,10.30
2019-03-17T00:42:37.065Z,10.40
2019-03-17T00:45:11.593Z,10.40
2019-03-17T00:47:41.712Z,10.50
2019-03-17T00:50:11.839Z,10.50
2019-03-17T00:52:40.443Z,10.50
2019-03-17T00:55:09.166Z,10.50
2019-03-17T00:57:37.810Z,10.50
2019-03-17T01:00:12.230Z,10.50
2019-03-17T01:02:40.873Z,10.50
2019-03-17T01:05:09.518Z,10.40
2019-03-17T01:07:38.081Z,10.40
2019-03-17T01:10:08.427Z,10.40
2019-03-17T01:12:36.986Z,10.40
2019-03-17T01:15:06.746Z,10.40
2019-03-17T01:17:35.648Z,10.40
2019-03-17T01:20:06.070Z,10.30
2019-03-17T01:22:34.733Z,10.20
2019-03-17T01:25:03.847Z,10.20
2019-03-17T01:27:32.414Z,10.20
2019-03-17T01:30:01.010Z,10.10
2019-03-17T01:32:29.857Z,10.10
2019-03-17T01:35:08.593Z,10.10
2019-03-17T01:37:28.653Z,10.00
2019-03-17T01:39:57.245Z,10.00
2019-03-17T01:42:25.962Z,10.00
2019-03-17T01:44:54.543Z,10.00
2019-03-17T01:47:23.122Z,10.00
2019-03-17T01:49:51.712Z,10.00
2019-03-17T01:52:20.354Z,10.10
2019-03-17T01:54:48.948Z,10.00
2019-03-17T01:57:17.505Z,10.00
2019-03-17T01:59:46.018Z,9.90
2019-03-17T02:02:14.513Z,9.90
2019-03-17T02:04:43.165Z,10.00
2019-03-17T02:07:11.675Z,10.00
2019-03-17T02:09:40.195Z,10.10
2019-03-17T02:12:08.773Z,10.20
2019-03-17T02:14:37.289Z,10.20
2019-03-17T02:17:05.785Z,10.20
2019-03-17T02:19:34.404Z,10.30
2019-03-17T02:22:03.243Z,10.30
2019-03-17T02:24:31.834Z,10.30
2019-03-17T02:27:00.325Z,10.30
2019-03-17T02:29:28.861Z,10.30
2019-03-17T02:31:57.432Z,10.30
2019-03-17T02:34:26.086Z,10.30
2019-03-17T02:36:54.658Z,10.30
2019-03-17T02:39:26.310Z,10.30
2019-03-17T02:41:53.813Z,10.20
2019-03-17T02:44:22.375Z,10.20
2019-03-17T02:46:50.951Z,10.30
2019-03-17T02:49:19.591Z,10.20
2019-03-17T02:51:48.951Z,10.30
2019-03-17T02:54:17.530Z,10.20
2019-03-17T02:56:46.390Z,10.20
2019-03-17T02:59:14.963Z,10.20
2019-03-17T03:01:43.559Z,10.20
2019-03-17T03:04:12.340Z,10.20
2019-03-17T03:06:40.911Z,10.20
2019-03-17T03:09:09.474Z,10.20
2019-03-17T03:11:38.063Z,10.20
2019-03-17T03:14:06.625Z,10.20
2019-03-17T03:16:35.275Z,10.20
2019-03-17T03:19:03.864Z,10.20
2019-03-17T03:21:32.446Z,10.20
2019-03-17T03:24:01.021Z,10.20
2019-03-17T03:26:29.599Z,10.20
2019-03-17T03:28:58.165Z,10.20
2019-03-17T03:31:26.760Z,10.20
2019-03-17T03:33:55.326Z,10.20
2019-03-17T03:36:23.918Z,10.20
2019-03-17T03:38:52.488Z,10.20
2019-03-17T03:41:21.079Z,10.20
2019-03-17T03:43:49.652Z,10.20
2019-03-17T03:46:18.239Z,10.20
2019-03-17T03:48:46.821Z,10.20
2019-03-17T03:51:15.398Z,10.20
2019-03-17T03:53:43.902Z,10.20
2019-03-17T03:56:12.472Z,10.20
2019-03-17T03:58:41.050Z,10.10
2019-03-17T04:01:09.640Z,10.10
2019-03-17T04:03:38.223Z,10.10
2019-03-17T04:06:06.787Z,10.00
2019-03-17T04:08:35.354Z,10.00
2019-03-17T04:11:04.013Z,10.10
2019-03-17T04:13:32.583Z,10.00
2019-03-17T04:16:01.165Z,10.00
2019-03-17T04:18:29.736Z,10.00
2019-03-17T04:20:58.328Z,10.00
2019-03-17T04:23:26.967Z,10.00
2019-03-17T04:25:55.474Z,10.00
2019-03-17T04:28:24.045Z,10.00
2019-03-17T04:30:52.639Z,10.00
2019-03-17T04:33:21.207Z,9.90
2019-03-17T04:35:49.789Z,9.90
2019-03-17T04:38:18.283Z,9.90
2019-03-17T04:40:48.437Z,9.90
2019-03-17T04:43:16.993Z,9.80
2019-03-17T04:45:45.504Z,9.80
2019-03-17T04:48:14.085Z,9.70
2019-03-17T04:50:42.665Z,9.70
2019-03-17T04:53:11.224Z,9.60
2019-03-17T04:55:39.734Z,9.60
2019-03-17T04:58:08.297Z,9.50
2019-03-17T05:00:36.812Z,9.50
2019-03-17T05:03:05.382Z,9.40
2019-03-17T05:05:33.962Z,9.40
2019-03-17T05:08:02.532Z,9.40
2019-03-17T05:10:32.383Z,9.30
2019-03-17T05:13:00.950Z,9.30
2019-03-17T05:15:29.534Z,9.20
2019-03-17T05:17:58.090Z,9.10
2019-03-17T05:20:26.669Z,9.00
2019-03-17T05:22:55.158Z,9.00
2019-03-17T05:25:23.742Z,8.90
2019-03-17T05:27:52.237Z,8.90
2019-03-17T05:30:20.751Z,8.80
2019-03-17T05:32:49.310Z,8.80
2019-03-17T05:35:17.807Z,8.70
2019-03-17T05:37:46.389Z,8.70
2019-03-17T05:40:14.910Z,8.60
2019-03-17T05:42:43.488Z,8.60
2019-03-17T05:45:12.048Z,8.60
2019-03-17T05:47:40.703Z,8.60
2019-03-17T05:50:11.114Z,8.60
2019-03-17T05:52:39.697Z,8.60
2019-03-17T05:55:11.221Z,8.60
2019-03-17T05:57:39.811Z,8.50
2019-03-17T06:00:13.824Z,8.50
2019-03-17T06:02:42.398Z,8.60
2019-03-17T06:05:11.026Z,8.50
2019-03-17T06:07:39.596Z,8.50
2019-03-17T06:10:08.331Z,8.50
2019-03-17T06:12:36.928Z,8.50
2019-03-17T06:15:08.684Z,8.50
2019-03-17T06:17:37.262Z,8.50
2019-03-17T06:20:07.961Z,8.50
2019-03-17T06:22:36.541Z,8.50
2019-03-17T06:25:07.640Z,8.50
2019-03-17T06:27:36.234Z,8.50
2019-03-17T06:30:12.914Z,8.40
2019-03-17T06:32:41.638Z,8.50
2019-03-17T06:35:10.337Z,8.50
2019-03-17T06:37:38.918Z,8.50
2019-03-17T06:40:10.492Z,8.40
2019-03-17T06:42:39.070Z,8.40
2019-03-17T06:45:09.572Z,8.50
2019-03-17T06:47:38.231Z,8.40
2019-03-17T06:50:13.914Z,8.40
2019-03-17T06:52:42.491Z,8.50
2019-03-17T06:55:17.610Z,8.50
2019-03-17T06:57:46.193Z,8.50
2019-03-17T07:00:15.481Z,8.50
2019-03-17T07:02:44.075Z,8.50
2019-03-17T07:05:12.703Z,8.50
2019-03-17T07:07:44.226Z,8.50
2019-03-17T07:10:11.719Z,8.50
2019-03-17T07:12:40.302Z,8.50
2019-03-17T07:15:10.880Z,8.50
2019-03-17T07:17:39.455Z,8.50
2019-03-17T07:20:10.462Z,8.40
2019-03-17T07:22:39.046Z,8.40
2019-03-17T07:25:08.751Z,8.40
2019-03-17T07:27:37.338Z,8.40
2019-03-17T07:30:08.975Z,8.40
2019-03-17T07:32:37.563Z,8.40
2019-03-17T07:35:06.954Z,8.20
2019-03-17T07:37:35.545Z,8.00
2019-03-17T07:40:06.634Z,7.70
2019-03-17T07:42:35.218Z,7.60
2019-03-17T07:45:04.549Z,7.50
2019-03-17T07:47:35.598Z,7.40
2019-03-17T07:50:03.905Z,7.30
2019-03-17T07:52:32.487Z,7.10
2019-03-17T07:55:01.040Z,7.10
2019-03-17T07:57:29.631Z,7.00
2019-03-17T07:59:58.187Z,7.00
2019-03-17T08:02:26.902Z,7.00
2019-03-17T08:04:58.325Z,7.10
2019-03-17T08:07:28.946Z,7.10
2019-03-17T08:09:57.429Z,7.00
2019-03-17T08:12:26.025Z,7.20
2019-03-17T08:14:57.747Z,7.20
2019-03-17T08:17:24.895Z,7.30
2019-03-17T08:19:57.817Z,7.40
2019-03-17T08:22:26.326Z,7.60
2019-03-17T08:24:54.810Z,7.70
2019-03-17T08:27:23.483Z,7.80
2019-03-17T08:29:52.230Z,7.80
2019-03-17T08:32:20.810Z,7.70
2019-03-17T08:34:49.444Z,7.70
2019-03-17T08:37:17.958Z,7.80
2019-03-17T08:39:46.505Z,7.70
2019-03-17T08:42:15.154Z,7.70
2019-03-17T08:44:43.735Z,7.60
2019-03-17T08:47:12.403Z,7.70
2019-03-17T08:49:40.958Z,7.80
2019-03-17T08:52:11.489Z,8.10
2019-03-17T08:54:39.719Z,8.50
2019-03-17T08:57:08.306Z,8.60
2019-03-17T08:59:36.970Z,8.80
2019-03-17T09:02:05.620Z,9.00
2019-03-17T09:04:34.345Z,9.10
2019-03-17T09:07:03.026Z,8.90
2019-03-17T09:09:33.101Z,8.80
2019-03-17T09:12:01.694Z,8.60
2019-03-17T09:14:30.448Z,8.50
2019-03-17T09:17:13.454Z,8.60
2019-03-17T09:19:31.137Z,8.50
2019-03-17T09:21:59.704Z,8.50
2019-03-17T09:24:29.649Z,8.50
2019-03-17T09:27:01.045Z,8.50
2019-03-17T09:29:29.531Z,8.50
2019-03-17T09:31:58.040Z,8.40
2019-03-17T09:34:26.674Z,8.50
2019-03-17T09:36:55.248Z,8.50
2019-03-17T09:39:23.814Z,8.50
2019-03-17T09:41:52.762Z,8.50
2019-03-17T09:44:21.313Z,8.50
2019-03-17T09:46:49.821Z,8.50
2019-03-17T09:49:18.392Z,8.60
2019-03-17T09:51:46.957Z,8.70
2019-03-17T09:54:18.211Z,8.60
2019-03-17T09:56:46.770Z,8.70
2019-03-17T09:59:15.351Z,8.80
2019-03-17T10:01:44.054Z,8.90
2019-03-17T10:04:14.299Z,9.10
2019-03-17T10:06:42.928Z,9.30
2019-03-17T10:09:11.531Z,9.40
2019-03-17T10:11:40.102Z,9.40
2019-03-17T10:14:08.742Z,9.30
2019-03-17T10:16:37.306Z,9.30
2019-03-17T10:19:07.370Z,9.20
2019-03-17T10:21:35.935Z,9.30
2019-03-17T10:24:04.763Z,9.40
2019-03-17T10:26:33.383Z,9.40
2019-03-17T10:29:01.957Z,9.60
2019-03-17T10:31:30.458Z,9.40
2019-03-17T10:33:59.105Z,9.20
2019-03-17T10:36:27.594Z,9.00
2019-03-17T10:38:56.315Z,9.00
2019-03-17T10:41:26.465Z,9.10
2019-03-17T10:43:55.045Z,9.20
2019-03-17T10:46:23.670Z,9.20
2019-03-17T10:48:52.181Z,9.00
2019-03-17T10:51:20.734Z,8.90
2019-03-17T10:53:49.301Z,9.10
2019-03-17T10:56:17.790Z,9.00
2019-03-17T10:58:46.382Z,9.00
2019-03-17T11:01:20.407Z,8.80
2019-03-17T11:03:49.050Z,8.80
2019-03-17T11:06:17.685Z,8.80
2019-03-17T11:08:46.189Z,8.90
2019-03-17T11:11:14.771Z,9.00
2019-03-17T11:13:43.359Z,9.10
2019-03-17T11:16:13.229Z,9.40
2019-03-17T11:18:44.593Z,9.50
2019-03-17T11:21:13.238Z,9.70
2019-03-17T11:23:41.895Z,9.90
2019-03-17T11:26:10.453Z,10.00
2019-03-17T11:28:40.092Z,10.00
2019-03-17T11:31:08.814Z,10.20
2019-03-17T11:33:37.403Z,10.30
2019-03-17T11:36:05.981Z,10.30
2019-03-17T11:38:34.571Z,10.30
2019-03-17T11:41:04.674Z,10.00
2019-03-17T11:43:33.998Z,10.10
2019-03-17T11:46:02.564Z,10.00
2019-03-17T11:48:31.156Z,9.90
2019-03-17T11:50:59.845Z,9.60
2019-03-17T11:53:28.440Z,9.00
2019-03-17T11:55:57.062Z,8.60
2019-03-17T11:58:25.644Z,8.50
2019-03-17T12:00:54.207Z,8.50
2019-03-17T12:03:22.857Z,8.60
2019-03-17T12:05:53.984Z,8.60
2019-03-17T12:08:23.709Z,8.70
2019-03-17T12:10:52.405Z,8.70
2019-03-17T12:13:22.259Z,8.70
2019-03-17T12:15:50.822Z,8.90
2019-03-17T12:18:19.403Z,8.80
2019-03-17T12:20:48.030Z,8.90
2019-03-17T12:23:16.602Z,9.10
2019-03-17T12:25:45.090Z,9.10
2019-03-17T12:28:13.723Z,9.10
2019-03-17T12:30:43.839Z,9.10
2019-03-17T12:33:12.397Z,9.20
2019-03-17T12:35:40.973Z,9.40
2019-03-17T12:38:09.524Z,9.60
2019-03-17T12:40:38.103Z,9.70
2019-03-17T12:43:06.735Z,9.60
2019-03-17T12:45:35.290Z,9.50
2019-03-17T12:48:03.922Z,9.40
2019-03-17T12:50:32.494Z,9.50
2019-03-17T12:53:02.602Z,9.80
2019-03-17T12:55:31.190Z,9.90
2019-03-17T12:57:59.751Z,10.00
2019-03-17T13:00:28.513Z,10.10
2019-03-17T13:03:01.827Z,10.00
2019-03-17T13:05:30.423Z,10.20
2019-03-17T13:07:58.998Z,10.20
2019-03-17T13:10:27.579Z,10.40
2019-03-17T13:12:56.141Z,10.70
2019-03-17T13:15:24.676Z,10.90
2019-03-17T13:17:53.305Z,10.80
2019-03-17T13:20:21.962Z,10.40
2019-03-17T13:22:50.531Z,9.90
2019-03-17T13:25:19.176Z,9.50
2019-03-17T13:27:47.860Z,9.30
2019-03-17T13:30:18.318Z,8.90
2019-03-17T13:32:47.022Z,8.40
2019-03-17T13:35:15.657Z,8.20
2019-03-17T13:37:44.150Z,8.00
2019-03-17T13:40:28.148Z,7.80
2019-03-17T13:42:47.599Z,7.70
2019-03-17T13:45:16.283Z,7.60
2019-03-17T13:47:46.481Z,7.60
2019-03-17T13:50:16.986Z,7.50
2019-03-17T13:52:45.604Z,7.70
2019-03-17T13:55:14.178Z,7.70
2019-03-17T13:57:45.581Z,7.90
2019-03-17T14:00:15.471Z,8.20
2019-03-17T14:02:44.187Z,8.40
2019-03-17T14:05:13.220Z,8.60
2019-03-17T14:07:41.784Z,8.70
2019-03-17T14:10:15.849Z,8.80
2019-03-17T14:12:45.943Z,8.90
2019-03-17T14:15:15.316Z,9.10
2019-03-17T14:17:45.378Z,9.30
2019-03-17T14:20:16.572Z,9.30
2019-03-17T14:22:45.201Z,9.40
2019-03-17T14:25:16.225Z,9.30
2019-03-17T14:27:45.029Z,9.30
2019-03-17T14:30:16.176Z,9.40
2019-03-17T14:32:44.739Z,9.50
2019-03-17T14:35:13.491Z,9.50
2019-03-17T14:37:42.089Z,9.40
2019-03-17T14:40:15.667Z,9.40
2019-03-17T14:42:46.634Z,9.20
2019-03-17T14:45:16.356Z,9.10
2019-03-17T14:47:48.627Z,8.90
2019-03-17T14:50:24.311Z,9.00
2019-03-17T14:52:52.873Z,9.10
2019-03-17T14:55:25.070Z,9.20
2019-03-17T14:57:53.678Z,9.20
2019-03-17T15:00:23.606Z,9.20
2019-03-17T15:02:52.283Z,9.20
2019-03-17T15:05:25.199Z,9.10
2019-03-17T15:07:52.718Z,8.90
2019-03-17T15:10:23.077Z,8.80
2019-03-17T15:12:51.647Z,8.90
2019-03-17T15:15:21.062Z,9.00
2019-03-17T15:17:49.709Z,9.00
2019-03-17T15:20:23.841Z,9.00
2019-03-17T15:22:52.449Z,8.80
2019-03-17T15:25:22.163Z,8.80
2019-03-17T15:27:50.747Z,8.60
2019-03-17T15:30:26.437Z,8.60
2019-03-17T15:32:55.002Z,8.50
2019-03-17T15:35:23.654Z,8.60
2019-03-17T15:37:52.210Z,8.60
2019-03-17T15:40:21.740Z,8.50
2019-03-17T15:42:50.365Z,8.50
2019-03-17T15:45:20.075Z,8.40
2019-03-17T15:47:48.742Z,8.40
2019-03-17T15:50:22.317Z,8.30
2019-03-17T15:52:50.926Z,8.20
2019-03-17T15:55:19.655Z,8.20
2019-03-17T15:57:48.321Z,8.10
2019-03-17T16:00:25.324Z,7.90
2019-03-17T16:02:52.428Z,7.60
2019-03-17T16:05:22.163Z,7.50
2019-03-17T16:07:50.782Z,7.30
2019-03-17T16:10:21.766Z,7.20
2019-03-17T16:12:50.347Z,7.30
2019-03-17T16:15:20.170Z,7.30
2019-03-17T16:17:48.662Z,7.30
2019-03-17T16:20:21.998Z,7.30
2019-03-17T16:22:50.005Z,7.30
2019-03-17T16:25:24.834Z,7.30
2019-03-17T16:27:53.392Z,7.30
2019-03-17T16:30:26.493Z,7.30
2019-03-17T16:32:55.064Z,7.40
2019-03-17T16:35:24.649Z,7.40
2019-03-17T16:37:53.210Z,7.40
2019-03-17T16:40:33.769Z,7.40
2019-03-17T16:43:02.485Z,7.40
2019-03-17T16:45:31.558Z,7.40
2019-03-17T16:48:00.113Z,7.40
2019-03-17T16:50:28.697Z,7.40
2019-03-17T16:52:57.327Z,7.50
2019-03-17T16:55:25.902Z,7.50
2019-03-17T16:57:54.398Z,7.40
2019-03-17T17:00:25.010Z,7.40
2019-03-17T17:02:53.819Z,7.40
2019-03-17T17:05:23.354Z,7.40
2019-03-17T17:07:51.990Z,7.40
2019-03-17T17:10:30.541Z,7.40
2019-03-17T17:12:59.087Z,7.40
2019-03-17T17:15:29.774Z,7.30
2019-03-17T17:17:58.400Z,7.30
2019-03-17T17:20:29.305Z,7.30
2019-03-17T17:22:57.932Z,7.30
2019-03-17T17:25:26.512Z,7.30
2019-03-17T17:27:55.146Z,7.20
2019-03-17T17:30:23.714Z,7.20
2019-03-17T17:32:52.307Z,7.10
2019-03-17T17:35:20.922Z,7.00
2019-03-17T17:37:49.499Z,7.00
2019-03-17T17:40:19.513Z,6.90
2019-03-17T17:42:48.178Z,6.80
2019-03-17T17:45:18.274Z,6.80
2019-03-17T17:47:46.859Z,6.70
2019-03-17T17:50:17.637Z,6.70
2019-03-17T17:52:49.193Z,6.60
2019-03-17T17:55:17.685Z,6.60
2019-03-17T17:57:46.354Z,6.60
2019-03-17T18:00:19.183Z,6.50
2019-03-17T18:02:47.848Z,6.60
2019-03-17T18:05:16.553Z,6.50
2019-03-17T18:07:45.140Z,6.50
2019-03-17T18:10:15.034Z,6.50
2019-03-17T18:12:44.165Z,6.50
2019-03-17T18:15:28.370Z,6.40
2019-03-17T18:17:57.017Z,6.30
2019-03-17T18:20:25.587Z,6.30
2019-03-17T18:22:54.201Z,6.40
2019-03-17T18:25:22.935Z,6.30
2019-03-17T18:27:54.385Z,6.30
2019-03-17T18:30:27.079Z,6.20
2019-03-17T18:32:55.649Z,6.20
2019-03-17T18:35:24.253Z,6.20
2019-03-17T18:37:52.838Z,6.10
2019-03-17T18:40:24.235Z,6.10
2019-03-17T18:42:52.874Z,6.10
2019-03-17T18:45:28.894Z,6.00
2019-03-17T18:47:57.938Z,6.00
2019-03-17T18:50:27.135Z,6.00
2019-03-17T18:52:55.714Z,5.90
2019-03-17T18:55:25.817Z,5.80
2019-03-17T18:57:54.396Z,5.80
2019-03-17T19:00:24.293Z,5.70
2019-03-17T19:02:52.887Z,5.70
2019-03-17T19:05:21.449Z,5.70
2019-03-17T19:07:50.052Z,5.80
2019-03-17T19:10:22.278Z,5.70
2019-03-17T19:12:50.940Z,5.80
2019-03-17T19:15:23.132Z,5.80
2019-03-17T19:17:51.723Z,5.80
2019-03-17T19:20:24.028Z,5.70
2019-03-17T19:22:52.627Z,5.70
2019-03-17T19:25:22.222Z,5.70
2019-03-17T19:27:50.813Z,5.70
2019-03-17T19:30:23.292Z,5.70
2019-03-17T19:32:51.842Z,5.70
2019-03-17T19:35:20.545Z,5.70
2019-03-17T19:37:49.229Z,5.70
2019-03-17T19:40:24.874Z,5.70
2019-03-17T19:42:59.363Z,5.70
2019-03-17T19:45:23.761Z,5.70
2019-03-17T19:47:52.389Z,5.70
2019-03-17T19:50:23.956Z,5.70
2019-03-17T19:52:52.540Z,5.60
2019-03-17T19:55:21.092Z,5.60
2019-03-17T19:57:49.794Z,5.60
2019-03-17T20:00:20.456Z,5.60
2019-03-17T20:02:49.053Z,5.50
2019-03-17T20:05:17.761Z,5.50
2019-03-17T20:07:46.354Z,5.50
2019-03-17T20:10:25.859Z,5.50
2019-03-17T20:12:54.441Z,5.40
2019-03-17T20:15:23.115Z,5.40
2019-03-17T20:17:51.658Z,5.40
2019-03-17T20:20:20.146Z,5.40
2019-03-17T20:22:48.727Z,5.40
2019-03-17T20:25:17.280Z,5.30
2019-03-17T20:27:45.790Z,5.30
2019-03-17T20:30:20.348Z,5.20
2019-03-17T20:32:48.925Z,5.20
2019-03-17T20:35:17.534Z,5.20
2019-03-17T20:37:46.087Z,5.10
2019-03-17T20:40:15.608Z,5.20
2019-03-17T20:42:44.191Z,5.10
2019-03-17T20:45:16.099Z,5.10
2019-03-17T20:47:44.777Z,5.10
2019-03-17T20:50:14.574Z,5.10
2019-03-17T20:52:43.159Z,5.00
2019-03-17T20:55:12.351Z,5.00
2019-03-17T20:57:40.953Z,5.00
2019-03-17T21:00:20.131Z,5.00
2019-03-17T21:02:48.718Z,5.00
2019-03-17T21:05:17.358Z,4.90
2019-03-17T21:07:45.935Z,4.90
2019-03-17T21:10:15.282Z,4.90
2019-03-17T21:12:44.102Z,4.90
2019-03-17T21:15:14.870Z,4.80
2019-03-17T21:17:43.450Z,4.90
2019-03-17T21:20:16.061Z,4.80
2019-03-17T21:22:44.576Z,4.80
2019-03-17T21:25:13.286Z,4.70
2019-03-17T21:27:41.937Z,4.60
2019-03-17T21:30:19.332Z,4.60
2019-03-17T21:32:47.918Z,4.60
2019-03-17T21:35:16.481Z,4.50
2019-03-17T21:37:45.058Z,4.50
2019-03-17T21:40:13.691Z,4.40
2019-03-17T21:42:42.277Z,4.40
2019-03-17T21:45:12.089Z,4.40
2019-03-17T21:47:40.723Z,4.30
2019-03-17T21:50:20.573Z,4.30
2019-03-17T21:52:49.217Z,4.30
2019-03-17T21:55:17.874Z,4.30
2019-03-17T21:57:46.763Z,4.30
2019-03-17T22:00:17.073Z,4.30
2019-03-17T22:02:45.706Z,4.30
2019-03-17T22:05:14.431Z,4.30
2019-03-17T22:07:49.759Z,4.30
2019-03-17T22:10:15.953Z,4.30
2019-03-17T22:12:44.524Z,4.40
2019-03-17T22:15:14.155Z,4.30
2019-03-17T22:17:42.719Z,4.30
2019-03-17T22:20:13.307Z,4.30
2019-03-17T22:22:41.890Z,4.30
2019-03-17T22:25:11.616Z,4.30
2019-03-17T22:27:40.175Z,4.30
2019-03-17T22:30:16.917Z,4.20
2019-03-17T22:32:45.484Z,4.20
2019-03-17T22:35:14.206Z,4.10
2019-03-17T22:37:42.830Z,4.00
2019-03-17T22:40:16.115Z,4.10
2019-03-17T22:42:44.813Z,4.00
2019-03-17T22:45:14.329Z,4.00
2019-03-17T22:47:42.892Z,4.00
2019-03-17T22:50:16.743Z,4.00
2019-03-17T22:52:45.379Z,4.00
2019-03-17T22:55:14.698Z,4.00
2019-03-17T22:57:43.435Z,4.00
2019-03-17T23:00:34.323Z,3.90
2019-03-17T23:03:03.037Z,3.90
2019-03-17T23:05:31.614Z,3.90
2019-03-17T23:08:00.115Z,3.90
2019-03-17T23:10:28.693Z,3.90
2019-03-17T23:12:57.298Z,3.90
2019-03-17T23:15:25.885Z,3.90
2019-03-17T23:17:54.458Z,3.90
2019-03-17T23:20:23.120Z,3.90
2019-03-17T23:22:51.675Z,3.90
2019-03-17T23:25:20.263Z,3.90
2019-03-17T23:27:48.889Z,3.80
2019-03-17T23:30:21.157Z,3.90
2019-03-17T23:32:49.827Z,3.90
2019-03-17T23:35:18.686Z,3.90
2019-03-17T23:37:47.252Z,3.80
2019-03-17T23:40:16.976Z,3.80
2019-03-17T23:42:45.620Z,3.80
2019-03-17T23:45:14.942Z,3.80
2019-03-17T23:47:43.579Z,3.80
2019-03-17T23:50:14.275Z,3.70
2019-03-17T23:52:42.968Z,3.70
2019-03-17T23:55:12.522Z,3.70
2019-03-17T23:57:41.153Z,3.70
